WON1360 WALL-WAQT
Flight info
| Callsign | WON1360 |
|---|---|
| Flight time | 0h 48m |
| Altitude | 21000 |
| Route | BPN W18 MABOT |
| Aircraft | DH8D/M-SDE2E3FGRY/H |
Departure
| Time | 2026-04-26 13:34 |
|---|---|
| Airport | Sultan Aji Muhammad Sulaiman Sepinggan International Airport (WALL) |
Arrival
| Time | 2026-04-26 14:23 |
|---|---|
| Airport | Kalimarau Airport (WAQT) |
| Time | Latitude | Longitude | Altitude | Speed | Heading |
|---|---|---|---|---|---|
| 2026-04-26 13:16 | -1.26193 | 116.90132 | 22 ft | 0 kts | 337° |
| 2026-04-26 13:20 | -1.26192 | 116.90132 | 22 ft | 0 kts | 337° |
| 2026-04-26 13:21 | -1.26196 | 116.90134 | 22 ft | 2 kts | 337° |
| 2026-04-26 13:21 | -1.26210 | 116.90140 | 22 ft | 2 kts | 337° |
| 2026-04-26 13:21 | -1.26224 | 116.90146 | 22 ft | 2 kts | 337° |
| 2026-04-26 13:22 | -1.26238 | 116.90151 | 22 ft | 2 kts | 337° |
| 2026-04-26 13:22 | -1.26247 | 116.90155 | 22 ft | 1 kts | 332° |
| 2026-04-26 13:22 | -1.26255 | 116.90166 | 23 ft | 2 kts | 278° |
| 2026-04-26 13:22 | -1.26254 | 116.90177 | 23 ft | 1 kts | 245° |
| 2026-04-26 13:23 | -1.26253 | 116.90179 | 23 ft | 0 kts | 245° |
| 2026-04-26 13:27 | -1.26257 | 116.90170 | 23 ft | 3 kts | 245° |
| 2026-04-26 13:27 | -1.26272 | 116.90135 | 22 ft | 7 kts | 247° |
| 2026-04-26 13:27 | -1.26297 | 116.90076 | 22 ft | 9 kts | 248° |
| 2026-04-26 13:27 | -1.26347 | 116.90054 | 23 ft | 8 kts | 171° |
| 2026-04-26 13:28 | -1.26409 | 116.90022 | 23 ft | 12 kts | 245° |
| 2026-04-26 13:28 | -1.26441 | 116.89945 | 22 ft | 11 kts | 246° |
| 2026-04-26 13:28 | -1.26486 | 116.89838 | 22 ft | 23 kts | 248° |
| 2026-04-26 13:28 | -1.26551 | 116.89683 | 23 ft | 22 kts | 247° |
| 2026-04-26 13:29 | -1.26614 | 116.89535 | 22 ft | 23 kts | 248° |
| 2026-04-26 13:29 | -1.26675 | 116.89389 | 22 ft | 22 kts | 245° |
| 2026-04-26 13:29 | -1.26737 | 116.89247 | 22 ft | 22 kts | 247° |
| 2026-04-26 13:29 | -1.26793 | 116.89114 | 22 ft | 19 kts | 247° |
| 2026-04-26 13:30 | -1.26840 | 116.89001 | 22 ft | 16 kts | 247° |
| 2026-04-26 13:30 | -1.26882 | 116.88905 | 23 ft | 13 kts | 244° |
| 2026-04-26 13:30 | -1.26921 | 116.88812 | 23 ft | 17 kts | 248° |
| 2026-04-26 13:30 | -1.26977 | 116.88679 | 22 ft | 23 kts | 248° |
| 2026-04-26 13:31 | -1.27041 | 116.88531 | 23 ft | 21 kts | 247° |
| 2026-04-26 13:31 | -1.27090 | 116.88411 | 23 ft | 11 kts | 243° |
| 2026-04-26 13:31 | -1.27149 | 116.88366 | 23 ft | 10 kts | 192° |
| 2026-04-26 13:31 | -1.27213 | 116.88380 | 23 ft | 9 kts | 142° |
| 2026-04-26 13:32 | -1.27243 | 116.88408 | 23 ft | 4 kts | 135° |
| 2026-04-26 13:32 | -1.27262 | 116.88432 | 22 ft | 3 kts | 101° |
| 2026-04-26 13:32 | -1.27257 | 116.88453 | 22 ft | 2 kts | 66° |
| 2026-04-26 13:32 | -1.27256 | 116.88454 | 22 ft | 0 kts | 66° |
| 2026-04-26 13:33 | -1.27256 | 116.88455 | 22 ft | 1 kts | 66° |
| 2026-04-26 13:33 | -1.27178 | 116.88641 | 23 ft | 71 kts | 65° |
| 2026-04-26 13:34 | -1.26884 | 116.89338 | 23 ft | 139 kts | 66° |
| 2026-04-26 13:34 | -1.26522 | 116.90298 | 276 ft | 154 kts | 69° |
| 2026-04-26 13:34 | -1.26138 | 116.91345 | 731 ft | 163 kts | 68° |
| 2026-04-26 13:34 | -1.25890 | 116.92030 | 1297 ft | 151 kts | 71° |
| 2026-04-26 13:35 | -1.25578 | 116.93264 | 2188 ft | 148 kts | 73° |
| 2026-04-26 13:35 | -1.24929 | 116.94144 | 2360 ft | 166 kts | 23° |
| 2026-04-26 13:35 | -1.23855 | 116.94299 | 3146 ft | 152 kts | 7° |
| 2026-04-26 13:35 | -1.22807 | 116.94405 | 3669 ft | 153 kts | 9° |
| 2026-04-26 13:36 | -1.21761 | 116.94533 | 4202 ft | 152 kts | 9° |
| 2026-04-26 13:36 | -1.20698 | 116.94667 | 4696 ft | 154 kts | 9° |
| 2026-04-26 13:36 | -1.19640 | 116.94804 | 5158 ft | 157 kts | 9° |
| 2026-04-26 13:36 | -1.18532 | 116.94947 | 5593 ft | 162 kts | 8° |
| 2026-04-26 13:37 | -1.17391 | 116.95097 | 6002 ft | 168 kts | 8° |
| 2026-04-26 13:37 | -1.16228 | 116.95249 | 6458 ft | 170 kts | 8° |
| 2026-04-26 13:37 | -1.15041 | 116.95406 | 6920 ft | 173 kts | 8° |
| 2026-04-26 13:37 | -1.13839 | 116.95565 | 7372 ft | 175 kts | 8° |
| 2026-04-26 13:38 | -1.12623 | 116.95727 | 7796 ft | 178 kts | 9° |
| 2026-04-26 13:38 | -1.11364 | 116.95895 | 8200 ft | 182 kts | 9° |
| 2026-04-26 13:38 | -1.10106 | 116.96065 | 8631 ft | 184 kts | 9° |
| 2026-04-26 13:38 | -1.08835 | 116.96236 | 9033 ft | 185 kts | 9° |
| 2026-04-26 13:39 | -1.07539 | 116.96410 | 9407 ft | 188 kts | 10° |
| 2026-04-26 13:39 | -1.06242 | 116.96584 | 9814 ft | 189 kts | 9° |
| 2026-04-26 13:39 | -1.04931 | 116.96761 | 10196 ft | 190 kts | 10° |
| 2026-04-26 13:39 | -1.03614 | 116.96939 | 10581 ft | 191 kts | 10° |
| 2026-04-26 13:40 | -1.02280 | 116.97119 | 10977 ft | 192 kts | 10° |
| 2026-04-26 13:40 | -1.00953 | 116.97298 | 11338 ft | 194 kts | 10° |
| 2026-04-26 13:40 | -0.99615 | 116.97480 | 11718 ft | 194 kts | 10° |
| 2026-04-26 13:40 | -0.98270 | 116.97662 | 12087 ft | 196 kts | 10° |
| 2026-04-26 13:41 | -0.96904 | 116.97846 | 12426 ft | 197 kts | 11° |
| 2026-04-26 13:41 | -0.95524 | 116.98032 | 12784 ft | 198 kts | 10° |
| 2026-04-26 13:41 | -0.94164 | 116.98216 | 13114 ft | 199 kts | 10° |
| 2026-04-26 13:41 | -0.92774 | 116.98404 | 13449 ft | 199 kts | 9° |
| 2026-04-26 13:42 | -0.91398 | 116.98590 | 13768 ft | 200 kts | 10° |
| 2026-04-26 13:42 | -0.90014 | 116.98777 | 14048 ft | 202 kts | 10° |
| 2026-04-26 13:42 | -0.88606 | 116.98968 | 14359 ft | 202 kts | 10° |
| 2026-04-26 13:42 | -0.87207 | 116.99157 | 14640 ft | 203 kts | 10° |
| 2026-04-26 13:43 | -0.85802 | 116.99347 | 14917 ft | 204 kts | 10° |
| 2026-04-26 13:43 | -0.84392 | 116.99538 | 15188 ft | 205 kts | 10° |
| 2026-04-26 13:43 | -0.82960 | 116.99732 | 15434 ft | 207 kts | 11° |
| 2026-04-26 13:43 | -0.81512 | 116.99928 | 15713 ft | 208 kts | 10° |
| 2026-04-26 13:44 | -0.80070 | 117.00124 | 15950 ft | 209 kts | 10° |
| 2026-04-26 13:44 | -0.78620 | 117.00320 | 16221 ft | 209 kts | 11° |
| 2026-04-26 13:44 | -0.77188 | 117.00513 | 16469 ft | 210 kts | 10° |
| 2026-04-26 13:44 | -0.75736 | 117.00710 | 16715 ft | 210 kts | 11° |
| 2026-04-26 13:45 | -0.74270 | 117.00909 | 16959 ft | 211 kts | 11° |
| 2026-04-26 13:45 | -0.72801 | 117.01108 | 17182 ft | 212 kts | 10° |
| 2026-04-26 13:45 | -0.71330 | 117.01307 | 17408 ft | 213 kts | 10° |
| 2026-04-26 13:45 | -0.69872 | 117.01505 | 17622 ft | 214 kts | 10° |
| 2026-04-26 13:46 | -0.68376 | 117.01707 | 17831 ft | 214 kts | 10° |
| 2026-04-26 13:46 | -0.66895 | 117.01907 | 18051 ft | 215 kts | 10° |
| 2026-04-26 13:46 | -0.65402 | 117.02110 | 18242 ft | 216 kts | 11° |
| 2026-04-26 13:46 | -0.63911 | 117.02312 | 18459 ft | 216 kts | 11° |
| 2026-04-26 13:47 | -0.62410 | 117.02515 | 18639 ft | 217 kts | 11° |
| 2026-04-26 13:47 | -0.60908 | 117.02719 | 18833 ft | 217 kts | 11° |
| 2026-04-26 13:47 | -0.59406 | 117.02922 | 19013 ft | 219 kts | 11° |
| 2026-04-26 13:47 | -0.57889 | 117.03128 | 19186 ft | 220 kts | 11° |
| 2026-04-26 13:48 | -0.56370 | 117.03334 | 19374 ft | 220 kts | 11° |
| 2026-04-26 13:48 | -0.54840 | 117.03542 | 19538 ft | 221 kts | 11° |
| 2026-04-26 13:48 | -0.53293 | 117.03751 | 19705 ft | 222 kts | 11° |
| 2026-04-26 13:48 | -0.51761 | 117.03959 | 19865 ft | 223 kts | 11° |
| 2026-04-26 13:49 | -0.50216 | 117.04168 | 20034 ft | 224 kts | 11° |
| 2026-04-26 13:49 | -0.48662 | 117.04379 | 20205 ft | 224 kts | 11° |
| 2026-04-26 13:49 | -0.47115 | 117.04588 | 20385 ft | 224 kts | 11° |
| 2026-04-26 13:49 | -0.45565 | 117.04799 | 20552 ft | 225 kts | 11° |
| 2026-04-26 13:50 | -0.44012 | 117.05009 | 20718 ft | 225 kts | 11° |
| 2026-04-26 13:50 | -0.42437 | 117.05223 | 20815 ft | 229 kts | 11° |
| 2026-04-26 13:50 | -0.40821 | 117.05444 | 20856 ft | 237 kts | 11° |
| 2026-04-26 13:50 | -0.39151 | 117.05671 | 20868 ft | 245 kts | 11° |
| 2026-04-26 13:51 | -0.37429 | 117.05904 | 20874 ft | 254 kts | 11° |
| 2026-04-26 13:51 | -0.35635 | 117.06147 | 20879 ft | 262 kts | 11° |
| 2026-04-26 13:51 | -0.33781 | 117.06397 | 20879 ft | 271 kts | 11° |
| 2026-04-26 13:51 | -0.31890 | 117.06653 | 20877 ft | 279 kts | 11° |
| 2026-04-26 13:52 | -0.29915 | 117.06919 | 20875 ft | 287 kts | 10° |
| 2026-04-26 13:52 | -0.27903 | 117.07191 | 20873 ft | 295 kts | 11° |
| 2026-04-26 13:52 | -0.25844 | 117.07468 | 20867 ft | 302 kts | 11° |
| 2026-04-26 13:52 | -0.23726 | 117.07755 | 20863 ft | 309 kts | 10° |
| 2026-04-26 13:53 | -0.21580 | 117.08044 | 20862 ft | 314 kts | 11° |
| 2026-04-26 13:53 | -0.19389 | 117.08341 | 20860 ft | 318 kts | 11° |
| 2026-04-26 13:53 | -0.17167 | 117.08642 | 20862 ft | 322 kts | 10° |
| 2026-04-26 13:53 | -0.14920 | 117.08946 | 20859 ft | 325 kts | 10° |
| 2026-04-26 13:54 | -0.12651 | 117.09252 | 20859 ft | 328 kts | 10° |
| 2026-04-26 13:54 | -0.10388 | 117.09559 | 20858 ft | 331 kts | 10° |
| 2026-04-26 13:54 | -0.08068 | 117.09873 | 20856 ft | 333 kts | 10° |
| 2026-04-26 13:55 | -0.03440 | 117.10500 | 20856 ft | 334 kts | 10° |
| 2026-04-26 13:55 | -0.01903 | 117.10707 | 20857 ft | 335 kts | 10° |
| 2026-04-26 13:55 | 0.03524 | 117.11443 | 20859 ft | 336 kts | 10° |
| 2026-04-26 13:56 | 0.05842 | 117.11757 | 20860 ft | 336 kts | 10° |
| 2026-04-26 13:56 | 0.08154 | 117.12071 | 20856 ft | 337 kts | 10° |
| 2026-04-26 13:56 | 0.10486 | 117.12386 | 20854 ft | 337 kts | 10° |
| 2026-04-26 13:56 | 0.12840 | 117.12705 | 20855 ft | 336 kts | 10° |
| 2026-04-26 13:57 | 0.15176 | 117.13023 | 20857 ft | 336 kts | 10° |
| 2026-04-26 13:57 | 0.17491 | 117.13337 | 20858 ft | 337 kts | 10° |
| 2026-04-26 13:57 | 0.19810 | 117.13651 | 20858 ft | 337 kts | 10° |
| 2026-04-26 13:57 | 0.22165 | 117.13971 | 20859 ft | 337 kts | 10° |
| 2026-04-26 13:58 | 0.24482 | 117.14285 | 20860 ft | 337 kts | 10° |
| 2026-04-26 13:58 | 0.26820 | 117.14603 | 20861 ft | 337 kts | 10° |
| 2026-04-26 13:58 | 0.29159 | 117.14920 | 20862 ft | 337 kts | 11° |
| 2026-04-26 13:58 | 0.31495 | 117.15237 | 20861 ft | 337 kts | 10° |
| 2026-04-26 13:59 | 0.33832 | 117.15554 | 20864 ft | 337 kts | 11° |
| 2026-04-26 13:59 | 0.36158 | 117.15870 | 20862 ft | 337 kts | 10° |
| 2026-04-26 13:59 | 0.38490 | 117.16186 | 20861 ft | 337 kts | 11° |
| 2026-04-26 14:00 | 0.45505 | 117.17140 | 20858 ft | 337 kts | 10° |
| 2026-04-26 14:00 | 0.47817 | 117.17455 | 20861 ft | 337 kts | 10° |
| 2026-04-26 14:00 | 0.49376 | 117.17668 | 20857 ft | 337 kts | 10° |
| 2026-04-26 14:01 | 0.52498 | 117.18094 | 20857 ft | 337 kts | 10° |
| 2026-04-26 14:01 | 0.54853 | 117.18415 | 20858 ft | 337 kts | 11° |
| 2026-04-26 14:01 | 0.57194 | 117.18734 | 20859 ft | 337 kts | 10° |
| 2026-04-26 14:01 | 0.59500 | 117.19049 | 20861 ft | 337 kts | 10° |
| 2026-04-26 14:02 | 0.61835 | 117.19367 | 20862 ft | 337 kts | 10° |
| 2026-04-26 14:02 | 0.64198 | 117.19689 | 20866 ft | 337 kts | 10° |
| 2026-04-26 14:02 | 0.66527 | 117.20007 | 20870 ft | 336 kts | 11° |
| 2026-04-26 14:02 | 0.68823 | 117.20320 | 20874 ft | 336 kts | 10° |
| 2026-04-26 14:03 | 0.71173 | 117.20641 | 20874 ft | 336 kts | 10° |
| 2026-04-26 14:03 | 0.73476 | 117.20955 | 20874 ft | 336 kts | 10° |
| 2026-04-26 14:03 | 0.75812 | 117.21273 | 20874 ft | 336 kts | 11° |
| 2026-04-26 14:03 | 0.78166 | 117.21594 | 20874 ft | 337 kts | 10° |
| 2026-04-26 14:04 | 0.80470 | 117.21909 | 20878 ft | 336 kts | 10° |
| 2026-04-26 14:04 | 0.82819 | 117.22229 | 20880 ft | 336 kts | 10° |
| 2026-04-26 14:04 | 0.85153 | 117.22547 | 20882 ft | 336 kts | 10° |
| 2026-04-26 14:04 | 0.87469 | 117.22863 | 20885 ft | 336 kts | 11° |
| 2026-04-26 14:05 | 0.89837 | 117.23186 | 20886 ft | 336 kts | 11° |
| 2026-04-26 14:05 | 0.92166 | 117.23503 | 20888 ft | 336 kts | 10° |
| 2026-04-26 14:05 | 0.94469 | 117.23817 | 20892 ft | 336 kts | 11° |
| 2026-04-26 14:05 | 0.96800 | 117.24136 | 20895 ft | 336 kts | 11° |
| 2026-04-26 14:06 | 0.99145 | 117.24455 | 20898 ft | 336 kts | 10° |
| 2026-04-26 14:06 | 1.01469 | 117.24772 | 20901 ft | 336 kts | 11° |
| 2026-04-26 14:06 | 1.03809 | 117.25092 | 20584 ft | 340 kts | 10° |
| 2026-04-26 14:06 | 1.06150 | 117.25409 | 20148 ft | 340 kts | 10° |
| 2026-04-26 14:07 | 1.08488 | 117.25725 | 19731 ft | 338 kts | 10° |
| 2026-04-26 14:07 | 1.10855 | 117.26045 | 19305 ft | 337 kts | 10° |
| 2026-04-26 14:07 | 1.13173 | 117.26360 | 18888 ft | 335 kts | 10° |
| 2026-04-26 14:07 | 1.15474 | 117.26672 | 18471 ft | 333 kts | 10° |
| 2026-04-26 14:08 | 1.17799 | 117.26989 | 18051 ft | 332 kts | 10° |
| 2026-04-26 14:08 | 1.20098 | 117.27302 | 17635 ft | 331 kts | 10° |
| 2026-04-26 14:08 | 1.22367 | 117.27611 | 17220 ft | 330 kts | 10° |
| 2026-04-26 14:08 | 1.24636 | 117.27920 | 16806 ft | 330 kts | 10° |
| 2026-04-26 14:09 | 1.26917 | 117.28231 | 16394 ft | 330 kts | 11° |
| 2026-04-26 14:09 | 1.29208 | 117.28545 | 15981 ft | 330 kts | 10° |
| 2026-04-26 14:09 | 1.31495 | 117.28857 | 15537 ft | 330 kts | 10° |
| 2026-04-26 14:09 | 1.33780 | 117.29169 | 15077 ft | 331 kts | 10° |
| 2026-04-26 14:10 | 1.36068 | 117.29481 | 14616 ft | 331 kts | 10° |
| 2026-04-26 14:10 | 1.38355 | 117.29793 | 14154 ft | 331 kts | 10° |
| 2026-04-26 14:10 | 1.40622 | 117.30103 | 13695 ft | 330 kts | 10° |
| 2026-04-26 14:10 | 1.42917 | 117.30415 | 13226 ft | 329 kts | 10° |
| 2026-04-26 14:11 | 1.47443 | 117.31031 | 12285 ft | 326 kts | 10° |
| 2026-04-26 14:11 | 1.49684 | 117.31336 | 11814 ft | 324 kts | 10° |
| 2026-04-26 14:11 | 1.51914 | 117.31641 | 11344 ft | 323 kts | 10° |
| 2026-04-26 14:12 | 1.54131 | 117.31942 | 10836 ft | 317 kts | 9° |
| 2026-04-26 14:12 | 1.56280 | 117.32230 | 10394 ft | 304 kts | 9° |
| 2026-04-26 14:12 | 1.58357 | 117.32510 | 10026 ft | 290 kts | 9° |
| 2026-04-26 14:12 | 1.60339 | 117.32780 | 9700 ft | 286 kts | 9° |
| 2026-04-26 14:13 | 1.64278 | 117.33322 | 9076 ft | 284 kts | 9° |
| 2026-04-26 14:13 | 1.66202 | 117.33583 | 8753 ft | 272 kts | 9° |
| 2026-04-26 14:13 | 1.68045 | 117.33886 | 8453 ft | 260 kts | 12° |
| 2026-04-26 14:14 | 1.69796 | 117.34222 | 8176 ft | 255 kts | 13° |
| 2026-04-26 14:14 | 1.71539 | 117.34558 | 7899 ft | 251 kts | 12° |
| 2026-04-26 14:14 | 1.73265 | 117.34888 | 7622 ft | 248 kts | 12° |
| 2026-04-26 14:14 | 1.74957 | 117.35210 | 7345 ft | 245 kts | 12° |
| 2026-04-26 14:15 | 1.76610 | 117.35520 | 7075 ft | 242 kts | 11° |
| 2026-04-26 14:15 | 1.78301 | 117.35677 | 6808 ft | 240 kts | 4° |
| 2026-04-26 14:15 | 1.79952 | 117.35789 | 6549 ft | 236 kts | 7° |
| 2026-04-26 14:15 | 1.81586 | 117.35885 | 6280 ft | 235 kts | 3° |
| 2026-04-26 14:16 | 1.83231 | 117.35917 | 6006 ft | 233 kts | 2° |
| 2026-04-26 14:16 | 1.84847 | 117.35964 | 5723 ft | 231 kts | 6° |
| 2026-04-26 14:16 | 1.86432 | 117.36235 | 5428 ft | 229 kts | 14° |
| 2026-04-26 14:16 | 1.87984 | 117.36603 | 5127 ft | 229 kts | 14° |
| 2026-04-26 14:17 | 1.89532 | 117.36977 | 4819 ft | 229 kts | 15° |
| 2026-04-26 14:17 | 1.91082 | 117.37355 | 4474 ft | 228 kts | 15° |
| 2026-04-26 14:17 | 1.92614 | 117.37737 | 4051 ft | 223 kts | 15° |
| 2026-04-26 14:17 | 1.94091 | 117.38100 | 3845 ft | 210 kts | 15° |
| 2026-04-26 14:18 | 1.95488 | 117.38438 | 3575 ft | 202 kts | 15° |
| 2026-04-26 14:18 | 1.96833 | 117.38763 | 3297 ft | 194 kts | 15° |
| 2026-04-26 14:18 | 1.98114 | 117.39070 | 3029 ft | 180 kts | 15° |
| 2026-04-26 14:18 | 1.99289 | 117.39352 | 2794 ft | 168 kts | 15° |
| 2026-04-26 14:19 | 2.00394 | 117.39624 | 2686 ft | 160 kts | 16° |
| 2026-04-26 14:19 | 2.01487 | 117.39892 | 2472 ft | 160 kts | 15° |
| 2026-04-26 14:19 | 2.02568 | 117.40153 | 2258 ft | 160 kts | 15° |
| 2026-04-26 14:19 | 2.03653 | 117.40415 | 2069 ft | 156 kts | 15° |
| 2026-04-26 14:20 | 2.04664 | 117.40653 | 1890 ft | 144 kts | 16° |
| 2026-04-26 14:20 | 2.05625 | 117.40882 | 1647 ft | 136 kts | 16° |
| 2026-04-26 14:20 | 2.06512 | 117.41093 | 1437 ft | 125 kts | 16° |
| 2026-04-26 14:20 | 2.07365 | 117.41310 | 1341 ft | 129 kts | 17° |
| 2026-04-26 14:21 | 2.08263 | 117.41538 | 1181 ft | 135 kts | 16° |
| 2026-04-26 14:21 | 2.09201 | 117.41759 | 1009 ft | 139 kts | 15° |
| 2026-04-26 14:21 | 2.10130 | 117.41971 | 797 ft | 131 kts | 14° |
| 2026-04-26 14:21 | 2.10982 | 117.42172 | 644 ft | 123 kts | 14° |
| 2026-04-26 14:22 | 2.11830 | 117.42384 | 446 ft | 125 kts | 15° |
| 2026-04-26 14:22 | 2.12675 | 117.42580 | 328 ft | 126 kts | 14° |
| 2026-04-26 14:22 | 2.13544 | 117.42783 | 181 ft | 127 kts | 11° |
| 2026-04-26 14:22 | 2.14389 | 117.42978 | 77 ft | 105 kts | 12° |
| 2026-04-26 14:23 | 2.14942 | 117.43111 | 76 ft | 52 kts | 14° |
| 2026-04-26 14:23 | 2.15054 | 117.43166 | 76 ft | 10 kts | 99° |
| 2026-04-26 14:23 | 2.15040 | 117.43214 | 76 ft | 6 kts | 107° |
| 2026-04-26 14:23 | 2.15028 | 117.43261 | 76 ft | 7 kts | 104° |